Time;durP1;ratioP1;P1;durP2;ratioP2;P2;SDS_P1;SDS_P2;PMS_P1;PMS_P2;Temp;Humidity;BMP_temperature;BMP_pressure;BME280_temperature;BME280_humidity;BME280_pressure;Samples;Min_cycle;Max_cycle;Signal;HPM_P1;HPM_P2
2022/12/24 00:02:02;;;;;;;4.57;2.33;;;;;;;17.44;57.95;96312.03;10442722;28;20287;-30
2022/12/24 00:07:03;;;;;;;5.60;2.63;;;;;;;17.41;57.49;96317.13;10442102;28;20064;-30
2022/12/24 00:12:04;;;;;;;5.47;2.60;;;;;;;17.39;57.39;96331.44;10442132;28;20638;-30
2022/12/24 00:17:04;;;;;;;4.40;2.60;;;;;;;17.38;57.21;96337.34;10442797;28;20045;-30
2022/12/24 00:22:05;;;;;;;5.10;2.77;;;;;;;17.38;57.21;96335.66;10443197;28;20031;-29
2022/12/24 00:27:06;;;;;;;5.72;3.33;;;;;;;17.35;57.18;96320.47;10440449;28;20049;-29
2022/12/24 00:32:09;;;;;;;4.10;2.17;;;;;;;17.37;56.91;96320.47;10440219;28;20040;-30
2022/12/24 00:37:09;;;;;;;3.53;2.00;;;;;;;17.37;57.16;96338.19;10441202;28;20264;-29
2022/12/24 00:42:09;;;;;;;7.53;2.93;;;;;;;17.41;64.04;96333.13;10448975;28;20029;-30
2022/12/24 00:47:10;;;;;;;6.40;2.80;;;;;;;17.44;63.48;96342.41;10449005;28;20033;-30
2022/12/24 00:52:10;;;;;;;4.13;2.40;;;;;;;17.40;58.97;96345.81;10447714;28;20040;-30
2022/12/24 00:57:10;;;;;;;2.93;1.87;;;;;;;17.41;57.79;96347.47;10450323;28;20889;-29
2022/12/24 01:02:11;;;;;;;4.43;2.42;;;;;;;17.39;57.47;96354.22;10447624;28;20485;-30
2022/12/24 01:07:11;;;;;;;2.90;2.10;;;;;;;17.37;57.24;96350.84;10450185;28;20591;-30
2022/12/24 01:12:11;;;;;;;5.33;2.13;;;;;;;17.37;57.18;96341.56;10448029;28;20297;-30
2022/12/24 01:17:12;;;;;;;5.60;2.10;;;;;;;17.34;56.82;96345.75;10449537;28;20029;-30
2022/12/24 01:22:12;;;;;;;2.97;1.60;;;;;;;17.35;56.49;96367.69;10448643;28;20291;-30
2022/12/24 01:27:13;;;;;;;3.27;2.00;;;;;;;17.37;56.33;96376.16;10447149;28;20663;-30
2022/12/24 01:32:13;;;;;;;4.90;2.13;;;;;;;17.38;56.64;96377.81;10447164;28;20295;-30
2022/12/24 01:37:13;;;;;;;6.50;3.10;;;;;;;17.44;63.61;96372.75;10445918;28;20079;-30
2022/12/24 01:47:42;;;;;;;4.22;2.53;;;;;;;17.43;58.68;96368.56;10443801;28;20036;-31
2022/12/24 01:52:43;;;;;;;4.18;2.17;;;;;;;17.41;57.62;96367.72;10437413;28;20038;-29
2022/12/24 01:57:52;;;;;;;2.95;1.85;;;;;;;17.38;56.98;96370.22;10446850;28;20580;-31
2022/12/24 02:02:53;;;;;;;2.83;1.80;;;;;;;17.36;56.87;96384.59;10447927;28;20070;-30
2022/12/24 02:07:53;;;;;;;3.60;1.92;;;;;;;17.37;56.57;96401.44;10446884;28;20112;-29
2022/12/24 02:12:54;;;;;;;4.55;1.73;;;;;;;17.35;56.68;96382.88;10445470;28;20043;-30
2022/12/24 02:18:24;;;;;;;3.42;1.98;;;;;;;17.38;56.56;96405.66;10446965;28;20032;-29
2022/12/24 02:23:49;;;;;;;3.72;1.90;;;;;;;17.36;56.40;96420.88;10434252;28;20045;-30
2022/12/24 02:29:31;;;;;;;2.97;1.73;;;;;;;17.34;56.29;96417.44;10446766;28;20057;-30
2022/12/24 02:34:43;;;;;;;8.02;2.85;;;;;;;17.41;63.20;96413.28;10441256;28;20040;-30
2022/12/24 02:39:54;;;;;;;5.63;2.92;;;;;;;17.42;63.09;96430.13;10442133;28;20043;-30
2022/12/24 02:45:00;;;;;;;3.15;2.10;;;;;;;17.42;58.15;96422.53;10446406;28;20040;-30
2022/12/24 02:50:02;;;;;;;3.72;1.52;;;;;;;17.20;57.35;96395.53;10443099;28;20412;-30
2022/12/24 02:55:10;;;;;;;3.22;1.90;;;;;;;17.39;56.86;96432.66;10439665;28;20159;-30
2022/12/24 03:00:16;;;;;;;2.75;1.60;;;;;;;17.38;56.80;96405.66;10443950;28;20107;-30
2022/12/24 03:05:26;;;;;;;4.50;1.70;;;;;;;17.35;56.75;96425.88;10445189;28;20024;-33
2022/12/24 03:10:27;;;;;;;3.42;1.77;;;;;;;17.37;56.55;96441.94;10443318;28;20037;-30
2022/12/24 03:15:30;;;;;;;4.00;1.67;;;;;;;17.36;56.28;96453.75;10446118;28;20513;-30
2022/12/24 03:20:38;;;;;;;2.75;1.55;;;;;;;17.36;56.25;96465.56;10439382;28;20111;-30
2022/12/24 03:25:41;;;;;;;2.83;2.10;;;;;;;17.35;56.43;96458.78;10439747;28;20484;-30
2022/12/24 03:30:44;;;;;;;4.50;2.30;;;;;;;17.41;63.43;96463.88;10437789;28;20120;-30
2022/12/24 03:35:45;;;;;;;3.72;2.58;;;;;;;17.44;62.97;96468.94;10436480;28;20052;-30
2022/12/24 03:40:45;;;;;;;5.80;2.85;;;;;;;17.44;60.99;96479.06;10443083;28;20115;-29
2022/12/24 03:45:46;;;;;;;3.85;1.75;;;;;;;17.41;57.38;96491.72;10437451;28;20045;-30
2022/12/24 03:50:46;;;;;;;3.38;1.65;;;;;;;17.39;57.07;96488.31;10440735;28;20137;-30
2022/12/24 03:55:46;;;;;;;3.23;1.67;;;;;;;17.38;56.80;96484.09;10439486;28;20033;-30
2022/12/24 04:00:47;;;;;;;3.03;1.43;;;;;;;17.37;56.61;96492.53;10437940;28;20041;-29
2022/12/24 04:05:47;;;;;;;2.20;1.43;;;;;;;17.37;56.27;96507.72;10438112;28;20299;-29
2022/12/24 04:10:47;;;;;;;3.83;2.50;;;;;;;17.36;56.18;96521.22;10438385;28;20124;-29
2022/12/24 04:16:09;;;;;;;3.63;1.57;;;;;;;17.35;56.16;96522.03;10439112;28;20600;-30
2022/12/24 04:21:09;;;;;;;5.10;1.83;;;;;;;17.34;55.98;96510.22;10427472;28;20021;-30
2022/12/24 04:26:11;;;;;;;3.60;1.92;;;;;;;17.35;56.74;96525.44;10431870;28;20075;-30
2022/12/24 04:31:15;;;;;;;3.83;2.17;;;;;;;17.42;63.08;96526.31;10441857;28;20037;-29
2022/12/24 04:36:16;;;;;;;4.07;2.42;;;;;;;17.45;62.90;96531.34;10439133;28;20152;-30
2022/12/24 04:41:19;;;;;;;3.20;2.15;;;;;;;17.43;59.43;96548.22;10442706;28;20044;-30
2022/12/24 04:46:22;;;;;;;2.35;1.50;;;;;;;17.39;57.04;96547.38;10435749;28;20029;-30
2022/12/24 04:51:24;;;;;;;3.55;1.52;;;;;;;17.39;56.75;96547.38;10427138;28;20033;-29
2022/12/24 04:56:27;;;;;;;2.80;1.70;;;;;;;17.39;56.83;96544.84;10436447;28;20040;-30
2022/12/24 05:01:30;;;;;;;2.33;1.50;;;;;;;17.39;56.51;96544.84;10440685;28;20030;-30
2022/12/24 05:06:31;;;;;;;2.47;1.20;;;;;;;17.39;56.55;96542.31;10421833;28;20037;-30
2022/12/24 05:11:32;;;;;;;3.90;1.63;;;;;;;17.38;56.22;96534.72;10419228;28;20025;-32
2022/12/24 05:16:32;;;;;;;3.13;1.60;;;;;;;17.37;56.09;96533.88;10443210;28;20519;-30
2022/12/24 05:21:32;;;;;;;2.17;1.57;;;;;;;17.38;56.18;96534.72;10444821;28;20488;-30
2022/12/24 05:26:49;;;;;;;5.97;2.00;;;;;;;17.39;61.28;96551.56;10432520;28;20558;-30
2022/12/24 05:31:49;;;;;;;3.83;2.47;;;;;;;17.43;62.95;96558.34;10440329;28;20044;-29
2022/12/24 05:36:50;;;;;;;3.47;2.20;;;;;;;17.43;62.90;96560.88;10445579;28;20066;-30
2022/12/24 05:41:50;;;;;;;3.23;1.83;;;;;;;17.44;58.45;96575.22;10448810;28;20029;-30
2022/12/24 05:46:50;;;;;;;2.33;1.30;;;;;;;17.40;57.17;96578.59;10438984;28;20531;-30
2022/12/24 05:51:51;;;;;;;3.10;1.40;;;;;;;17.38;56.55;96565.06;10434546;28;20041;-29
2022/12/24 05:56:51;;;;;;;3.87;1.70;;;;;;;17.38;56.49;96547.38;10441985;28;20708;-30
2022/12/24 06:01:51;;;;;;;2.70;1.53;;;;;;;17.38;56.53;96547.38;10444611;28;20037;-30
2022/12/24 06:06:52;;;;;;;3.10;1.60;;;;;;;17.36;56.39;96551.59;10441929;28;20302;-30
2022/12/24 06:11:52;;;;;;;3.50;1.57;;;;;;;17.33;56.33;96569.28;10434588;28;20467;-30
2022/12/24 06:16:52;;;;;;;3.37;1.63;;;;;;;17.42;57.24;96581.97;10446793;28;20398;-30
2022/12/24 06:21:53;;;;;;;5.37;1.97;;;;;;;17.44;58.89;96570.16;10440389;28;20444;-30
2022/12/24 06:26:53;;;;;;;5.87;2.40;;;;;;;17.47;60.98;96570.16;10439140;28;20056;-30
2022/12/24 06:31:53;;;;;;;4.77;2.20;;;;;;;17.44;63.53;96580.28;10444862;28;20032;-30
2022/12/24 06:36:54;;;;;;;4.03;2.10;;;;;;;17.51;63.25;96571.88;10442225;28;20036;-30
2022/12/24 06:41:54;;;;;;;4.97;2.30;;;;;;;17.48;59.75;96567.63;10440668;28;20029;-30
2022/12/24 06:46:55;;;;;;;5.47;2.10;;;;;;;17.49;57.34;96556.66;10437892;28;20033;-30
2022/12/24 06:51:55;;;;;;;3.63;1.90;;;;;;;17.54;58.32;96551.59;10432868;28;20041;-31
2022/12/24 06:56:55;;;;;;;8.23;2.40;;;;;;;17.53;59.44;96550.78;10439575;28;20040;-30
2022/12/24 07:01:56;;;;;;;3.77;1.60;;;;;;;17.53;59.90;96549.91;10441977;28;20033;-30
2022/12/24 07:06:56;;;;;;;7.73;2.07;;;;;;;17.49;57.78;96556.66;10437671;28;20041;-30
2022/12/24 07:11:56;;;;;;;10.53;2.40;;;;;;;17.49;61.23;96558.38;10433702;28;20706;-30
2022/12/24 07:16:57;;;;;;;11.47;4.37;;;;;;;17.52;58.48;96579.47;10442627;28;20086;-30
2022/12/24 07:21:57;;;;;;;7.68;2.15;;;;;;;17.54;59.15;96584.50;10439115;28;20032;-31
2022/12/24 07:26:57;;;;;;;13.63;6.30;;;;;;;17.57;62.36;96582.84;10435174;28;20124;-29
2022/12/24 07:31:58;;;;;;;25.20;7.83;;;;;;;17.62;62.56;96581.16;10442155;28;20151;-30
2022/12/24 07:36:58;;;;;;;5.53;3.10;;;;;;;17.41;57.85;96544.84;10438975;28;20420;-30
2022/12/24 07:41:58;;;;;;;4.80;2.33;;;;;;;17.58;56.94;96588.75;10439516;28;20374;-30
2022/12/24 07:46:59;;;;;;;11.20;5.67;;;;;;;17.56;59.78;96586.22;10428712;28;20035;-31
2022/12/24 07:51:59;;;;;;;14.03;4.40;;;;;;;17.49;58.90;96593.81;10443267;28;20628;-31
2022/12/24 07:56:59;;;;;;;12.43;4.73;;;;;;;17.55;58.40;96614.91;10436305;28;20029;-30
2022/12/24 08:02:00;;;;;;;8.70;3.63;;;;;;;17.56;57.51;96630.94;10437064;28;20171;-30
2022/12/24 08:07:02;;;;;;;9.80;4.43;;;;;;;17.57;58.97;96625.03;10432762;28;20033;-32
2022/12/24 08:12:03;;;;;;;7.65;3.65;;;;;;;17.56;58.20;96625.88;10430389;28;20807;-31
2022/12/24 08:17:03;;;;;;;12.07;6.05;;;;;;;17.54;59.06;96633.47;10440711;28;20116;-31
2022/12/24 08:22:04;;;;;;;9.50;3.93;;;;;;;17.58;57.41;96629.25;10436316;28;20047;-31
2022/12/24 08:27:04;;;;;;;14.50;7.70;;;;;;;17.66;62.25;96637.72;10438155;28;20029;-30
2022/12/24 08:32:04;;;;;;;18.17;9.23;;;;;;;17.66;63.17;96642.78;10433464;28;20549;-31
2022/12/24 08:37:05;;;;;;;19.80;7.27;;;;;;;17.67;60.96;96652.06;10432090;28;20152;-32
2022/12/24 08:42:05;;;;;;;17.07;7.97;;;;;;;17.62;57.91;96646.97;10436323;28;20237;-29
2022/12/24 08:47:05;;;;;;;12.57;7.17;;;;;;;17.63;57.52;96647.81;10436977;28;20052;-31
2022/12/24 08:52:06;;;;;;;14.23;7.83;;;;;;;17.65;58.52;96646.16;10434709;28;20041;-30
2022/12/24 08:57:06;;;;;;;18.90;8.17;;;;;;;17.62;58.10;96658.78;10437819;28;20037;-31
2022/12/24 09:02:08;;;;;;;14.73;8.20;;;;;;;17.64;57.97;96657.09;10444223;28;20135;-30
2022/12/24 09:07:09;;;;;;;16.67;8.32;;;;;;;17.68;58.32;96661.34;10445868;28;20036;-30
2022/12/24 09:12:10;;;;;;;12.95;7.72;;;;;;;17.70;58.34;96662.19;10439018;28;20450;-30
2022/12/24 09:17:10;;;;;;;17.60;9.32;;;;;;;17.68;59.51;96679.06;10445795;28;20028;-30
2022/12/24 09:22:11;;;;;;;13.60;7.50;;;;;;;17.69;58.42;96673.16;10447551;28;20528;-33
2022/12/24 09:27:11;;;;;;;18.77;8.18;;;;;;;17.74;59.99;96686.69;10446178;28;20408;-31
2022/12/24 09:32:12;;;;;;;21.60;8.73;;;;;;;17.75;61.59;96699.31;10429851;28;20421;-32
2022/12/24 09:37:13;;;;;;;23.00;9.95;;;;;;;17.75;62.79;96709.44;10439364;28;20280;-30
2022/12/24 09:42:32;;;;;;;19.75;9.18;;;;;;;17.70;59.99;96698.47;10436194;28;20652;-30
2022/12/24 09:47:40;;;;;;;19.88;9.93;;;;;;;17.46;59.78;96682.34;10411806;28;20041;-30
2022/12/24 09:52:44;;;;;;;18.75;8.00;;;;;;;17.61;59.03;96722.91;10442717;28;20440;-33
2022/12/24 09:57:48;;;;;;;20.65;9.73;;;;;;;17.64;60.52;96727.97;10437976;28;20029;-31
2022/12/24 10:02:49;;;;;;;16.05;9.50;;;;;;;17.66;61.88;96728.84;10432301;28;20044;-30
2022/12/24 10:08:02;;;;;;;17.10;9.68;;;;;;;17.64;60.73;96721.25;10438619;28;20044;-30
2022/12/24 10:13:27;;;;;;;14.38;7.63;;;;;;;17.66;59.17;96708.59;10442556;28;20040;-32
2022/12/24 10:19:01;;;;;;;18.33;9.23;;;;;;;17.62;60.78;96696.75;10436366;28;20712;-31
2022/12/24 10:24:13;;;;;;;17.52;9.52;;;;;;;17.67;60.24;96700.16;10433364;28;20091;-30
2022/12/24 10:29:22;;;;;;;14.80;7.82;;;;;;;17.70;58.66;96706.06;10430738;28;20045;-31
2022/12/24 10:34:27;;;;;;;24.55;10.50;;;;;;;17.73;61.66;96698.47;10438203;28;20067;-31
2022/12/24 10:39:27;;;;;;;16.98;9.43;;;;;;;17.75;61.66;96698.50;10430042;28;20033;-31
2022/12/24 10:44:32;;;;;;;14.33;7.70;;;;;;;17.74;60.19;96701.88;10434598;28;20033;-31
2022/12/24 10:49:41;;;;;;;13.43;7.72;;;;;;;17.69;59.93;96701.84;10438225;28;20300;-30
2022/12/24 10:55:19;;;;;;;13.18;8.02;;;;;;;17.72;57.88;96713.66;10430800;28;20041;-30
2022/12/24 11:00:21;;;;;;;14.68;9.18;;;;;;;17.73;58.04;96723.81;10444790;28;20036;-30
2022/12/24 11:05:31;;;;;;;13.30;8.70;;;;;;;17.72;57.53;96738.97;10434244;28;20033;-30
2022/12/24 11:10:35;;;;;;;17.50;9.25;;;;;;;17.72;58.63;96744.91;10434666;28;20037;-31
2022/12/24 11:15:36;;;;;;;17.10;8.40;;;;;;;17.71;61.56;96742.34;10439268;28;20040;-31
2022/12/24 11:20:37;;;;;;;19.25;9.18;;;;;;;17.72;59.58;96731.38;10429847;28;20040;-30
2022/12/24 11:25:40;;;;;;;17.92;7.88;;;;;;;17.70;58.19;96716.22;10439824;28;20045;-30
2022/12/24 11:30:40;;;;;;;17.38;6.68;;;;;;;17.59;54.57;96722.06;10438493;28;20053;-30
2022/12/24 11:35:46;;;;;;;12.47;5.90;;;;;;;17.59;57.10;96727.13;10435379;28;20049;-30
2022/12/24 11:40:55;;;;;;;17.40;7.53;;;;;;;17.70;60.60;96730.53;10429798;28;20026;-31
2022/12/24 11:45:56;;;;;;;18.30;7.50;;;;;;;17.72;59.61;96726.31;10440010;28;20029;-30
2022/12/24 11:51:00;;;;;;;19.77;7.15;;;;;;;17.69;59.01;96708.59;10431327;28;20115;-30
2022/12/24 11:56:06;;;;;;;11.65;6.40;;;;;;;17.68;59.15;96706.91;10437623;28;20492;-31
2022/12/24 12:01:23;;;;;;;22.73;6.70;;;;;;;17.66;58.09;96704.34;10428297;28;20513;-30
2022/12/24 12:06:31;;;;;;;13.95;6.30;;;;;;;17.67;59.05;96700.16;10442384;28;20079;-30
2022/12/24 12:11:33;;;;;;;19.38;7.22;;;;;;;17.67;59.77;96700.16;10429803;28;20037;-30
2022/12/24 12:17:00;;;;;;;13.50;6.25;;;;;;;17.67;59.86;96700.16;10434485;28;20025;-31
2022/12/24 12:22:06;;;;;;;12.63;6.32;;;;;;;17.68;60.57;96701.84;10437574;28;20653;-30
2022/12/24 12:27:18;;;;;;;11.35;5.85;;;;;;;17.70;57.77;96700.16;10433258;28;20036;-30
2022/12/24 12:32:26;;;;;;;12.18;6.22;;;;;;;17.74;57.83;96701.88;10436236;28;20095;-31
2022/12/24 12:37:33;;;;;;;12.25;4.88;;;;;;;17.74;57.48;96701.88;10442831;28;20059;-30
2022/12/24 12:42:38;;;;;;;22.38;9.02;;;;;;;17.77;63.98;96697.66;10440560;28;20061;-30
2022/12/24 12:47:54;;;;;;;13.23;6.53;;;;;;;17.65;60.08;96674.00;10451668;28;20035;-31
2022/12/24 12:53:13;;;;;;;12.30;5.85;;;;;;;17.77;57.53;96686.66;10463775;28;20060;-29
2022/12/24 12:58:23;;;;;;;11.35;5.28;;;;;;;17.74;56.93;96687.50;10457115;28;20032;-30
2022/12/24 13:03:51;;;;;;;16.00;5.85;;;;;;;17.71;57.76;96682.44;10451298;28;20485;-30
2022/12/24 13:08:57;;;;;;;10.75;5.75;;;;;;;17.59;57.52;96666.38;10443648;28;20041;-30
2022/12/24 13:14:19;;;;;;;12.25;5.65;;;;;;;17.74;57.84;96681.63;10456243;28;20725;-30
2022/12/24 13:19:29;;;;;;;8.52;5.20;;;;;;;17.59;56.32;96679.88;10452755;28;20489;-30
2022/12/24 13:24:30;;;;;;;10.38;6.60;;;;;;;17.70;58.20;96669.78;10456480;28;20033;-31
2022/12/24 13:29:41;;;;;;;10.75;4.82;;;;;;;17.74;57.54;96674.03;10448799;28;20124;-31
2022/12/24 13:34:47;;;;;;;11.88;5.25;;;;;;;17.75;57.61;96671.47;10443726;28;20029;-30
2022/12/24 13:40:06;;;;;;;13.02;6.45;;;;;;;17.82;64.80;96669.81;10462379;28;20103;-30
2022/12/24 13:45:32;;;;;;;13.25;6.82;;;;;;;17.83;64.73;96652.06;10448037;28;20037;-31
2022/12/24 13:50:46;;;;;;;10.00;5.43;;;;;;;17.81;59.07;96653.75;10440411;28;20035;-31
2022/12/24 13:55:57;;;;;;;12.38;4.68;;;;;;;17.77;57.91;96661.34;10443330;28;20086;-30
2022/12/24 14:01:02;;;;;;;11.43;5.10;;;;;;;17.75;57.84;96675.69;10444391;28;20044;-30
2022/12/24 14:06:09;;;;;;;9.38;4.53;;;;;;;17.62;57.63;96687.50;10437073;28;20094;-30
2022/12/24 14:11:13;;;;;;;8.50;4.45;;;;;;;17.70;58.77;96687.50;10441347;28;20452;-31
2022/12/24 14:16:31;;;;;;;16.15;5.38;;;;;;;17.71;60.69;96692.56;10432793;28;20060;-30
2022/12/24 14:21:35;;;;;;;10.07;5.03;;;;;;;17.74;59.02;96684.16;10425618;28;20048;-30
2022/12/24 14:27:06;;;;;;;15.05;5.13;;;;;;;17.74;58.78;96679.09;10431938;28;20032;-30
2022/12/24 14:32:14;;;;;;;9.13;4.38;;;;;;;17.75;58.70;96683.31;10416247;28;20053;-30
2022/12/24 14:37:15;;;;;;;14.00;5.82;;;;;;;17.77;62.02;96672.34;10431442;28;20033;-30
2022/12/24 14:42:31;;;;;;;13.30;5.82;;;;;;;17.76;64.40;96664.72;10428285;28;20072;-30
2022/12/24 14:48:08;;;;;;;13.02;5.28;;;;;;;17.77;63.32;96685.00;10441213;28;20489;-32
2022/12/24 14:53:59;;;;;;;13.00;5.25;;;;;;;17.77;59.34;96674.88;10439346;28;20043;-30
2022/12/24 14:59:12;;;;;;;9.48;4.28;;;;;;;17.75;58.58;96673.16;10401295;28;20044;-30
2022/12/24 15:04:15;;;;;;;6.97;3.85;;;;;;;17.76;58.03;96679.91;10421755;28;20025;-31
2022/12/24 15:09:22;;;;;;;6.65;4.55;;;;;;;17.76;59.25;96685.81;10427792;28;20231;-31
2022/12/24 15:14:25;;;;;;;11.68;5.03;;;;;;;17.79;60.39;96690.91;10430644;28;20025;-31
2022/12/24 15:19:37;;;;;;;8.82;4.22;;;;;;;17.77;60.68;96671.47;10431375;28;20413;-31
2022/12/24 15:24:46;;;;;;;8.80;4.35;;;;;;;17.78;58.08;96678.22;10432269;28;20060;-31
2022/12/24 15:29:50;;;;;;;8.60;4.72;;;;;;;17.80;58.64;96681.59;10442219;28;20102;-30
2022/12/24 15:34:53;;;;;;;8.32;4.70;;;;;;;17.77;58.67;96692.59;10436287;28;20535;-30
2022/12/24 15:39:56;;;;;;;10.93;4.85;;;;;;;17.82;61.12;96692.59;10434282;28;20401;-31
2022/12/24 15:45:18;;;;;;;12.75;5.75;;;;;;;17.84;63.84;96698.50;10437459;28;20029;-30
2022/12/24 15:50:30;;;;;;;13.15;4.70;;;;;;;17.83;61.84;96724.69;10428295;28;20118;-30
2022/12/24 15:55:38;;;;;;;8.40;4.18;;;;;;;17.84;61.58;96731.44;10432607;28;20068;-31
2022/12/24 16:00:38;;;;;;;9.30;4.35;;;;;;;17.79;59.86;96749.16;10433850;28;20029;-30
2022/12/24 16:05:38;;;;;;;9.43;3.33;;;;;;;17.76;58.16;96745.75;10428056;28;20029;-30
2022/12/24 16:10:43;;;;;;;6.40;3.42;;;;;;;17.72;58.20;96737.31;10426118;28;20296;-30
2022/12/24 16:16:11;;;;;;;11.40;4.00;;;;;;;17.82;58.12;96751.69;10435969;28;20441;-30
2022/12/24 16:21:21;;;;;;;7.22;3.45;;;;;;;17.80;58.30;96760.97;10441742;28;20045;-31
2022/12/24 16:26:22;;;;;;;7.30;4.47;;;;;;;17.74;59.83;96772.78;10426732;28;20034;-30
2022/12/24 16:31:33;;;;;;;19.02;4.57;;;;;;;17.67;60.22;96771.03;10436474;28;20629;-30
2022/12/24 16:36:33;;;;;;;7.72;4.30;;;;;;;17.64;61.98;96774.41;10436238;28;20025;-31
2022/12/24 16:43:48;;;;;;;7.93;4.73;;;;;;;17.64;62.85;96758.34;10441675;28;20036;-30
2022/12/24 16:46:55;;;;;;;7.50;4.15;;;;;;;17.62;62.60;96767.63;10432916;28;20064;-32
2022/12/24 16:51:55;;;;;;;10.15;3.85;;;;;;;17.61;61.10;96768.47;10431217;28;20499;-31
2022/12/24 16:56:55;;;;;;;6.47;4.32;;;;;;;17.63;61.22;96766.78;10438170;28;20112;-30
2022/12/24 17:01:56;;;;;;;6.32;4.40;;;;;;;17.64;60.98;96771.00;10428262;28;20033;-30
2022/12/24 17:06:57;;;;;;;7.85;4.53;;;;;;;17.63;62.11;96779.44;10426483;28;20025;-30
2022/12/24 17:11:57;;;;;;;9.15;4.68;;;;;;;17.60;61.48;96774.38;10441834;28;21022;-30
2022/12/24 17:16:58;;;;;;;7.13;4.88;;;;;;;17.61;61.74;96782.00;10445341;28;20036;-30
2022/12/24 17:21:58;;;;;;;8.52;4.93;;;;;;;17.60;62.15;96784.50;10449891;28;20447;-32
2022/12/24 17:26:59;;;;;;;9.80;5.18;;;;;;;17.60;61.73;96792.97;10458607;28;20029;-30
2022/12/24 17:31:59;;;;;;;10.45;4.57;;;;;;;17.61;60.99;96778.59;10451412;28;20033;-30
2022/12/24 17:37:00;;;;;;;11.35;5.82;;;;;;;17.63;62.95;96789.56;10447528;28;20033;-31
2022/12/24 17:42:00;;;;;;;10.10;5.33;;;;;;;17.62;62.98;96788.75;10455827;28;20074;-31
2022/12/24 17:47:03;;;;;;;10.70;5.93;;;;;;;17.60;62.54;96790.44;10446413;28;20302;-31
2022/12/24 17:52:04;;;;;;;12.68;6.40;;;;;;;17.60;62.16;96794.66;10435416;28;20064;-30
2022/12/24 17:57:04;;;;;;;11.53;5.73;;;;;;;17.53;62.02;96782.78;10445857;28;20036;-30
2022/12/24 18:02:05;;;;;;;14.07;5.67;;;;;;;17.51;62.21;96787.84;10447438;28;20787;-31
2022/12/24 18:07:05;;;;;;;12.13;6.00;;;;;;;17.53;61.59;96790.38;10438657;28;20527;-31
2022/12/24 18:12:06;;;;;;;11.43;5.50;;;;;;;17.47;60.56;96780.22;10444617;28;20033;-30
2022/12/24 18:17:06;;;;;;;11.27;6.63;;;;;;;17.49;61.84;96778.56;10438700;28;20033;-30
2022/12/24 18:22:06;;;;;;;15.40;7.47;;;;;;;17.48;62.25;96784.47;10445857;28;20305;-31
2022/12/24 18:27:07;;;;;;;16.40;7.47;;;;;;;17.46;61.62;96776.00;10444535;28;20033;-31
2022/12/24 18:32:07;;;;;;;15.00;6.83;;;;;;;17.46;62.39;96770.94;10444041;28;20103;-31
2022/12/24 18:37:08;;;;;;;10.25;6.05;;;;;;;17.56;60.92;96762.56;10438213;28;20041;-30
2022/12/24 18:42:13;;;;;;;12.43;6.33;;;;;;;17.58;60.56;96771.00;10444851;28;20098;-30
2022/12/24 18:47:13;;;;;;;11.98;5.75;;;;;;;17.46;60.91;96748.16;10439100;28;20033;-30
2022/12/24 18:52:15;;;;;;;9.30;6.55;;;;;;;17.46;61.07;96756.63;10444432;28;20025;-33
2022/12/24 18:57:16;;;;;;;10.18;6.18;;;;;;;17.43;60.94;96770.94;10437657;28;20059;-31
2022/12/24 19:02:16;;;;;;;9.97;5.30;;;;;;;17.45;60.93;96779.38;10438305;28;20124;-30
2022/12/24 19:07:16;;;;;;;10.00;5.38;;;;;;;17.44;61.07;96783.59;10439541;28;20041;-31
2022/12/24 19:12:17;;;;;;;10.50;5.77;;;;;;;17.43;61.36;96776.00;10437945;28;20032;-30
2022/12/24 19:17:17;;;;;;;10.30;6.27;;;;;;;17.43;61.45;96776.00;10441779;28;20029;-30
2022/12/24 19:22:18;;;;;;;13.23;7.07;;;;;;;17.42;62.31;96775.13;10449698;28;20396;-32
2022/12/24 19:27:19;;;;;;;14.68;7.53;;;;;;;17.42;61.95;96772.59;10442677;28;20098;-30
2022/12/24 19:32:19;;;;;;;16.67;9.25;;;;;;;17.36;62.45;96769.22;10442137;28;20033;-30
2022/12/24 19:37:19;;;;;;;24.63;11.97;;;;;;;17.46;61.20;96765.88;10443294;28;20025;-29
2022/12/24 19:42:20;;;;;;;33.10;15.97;;;;;;;17.55;61.00;96773.50;10433938;28;20905;-30
2022/12/24 19:47:20;;;;;;;35.10;18.67;;;;;;;17.55;62.49;96776.03;10435188;28;20040;-30
2022/12/24 19:52:20;;;;;;;40.10;20.90;;;;;;;17.56;62.15;96783.66;10439724;28;20095;-31
2022/12/24 19:57:21;;;;;;;36.77;18.10;;;;;;;17.54;62.29;96792.06;10430565;28;20037;-31
2022/12/24 20:02:21;;;;;;;43.83;21.83;;;;;;;17.48;63.05;96777.72;10436551;28;20516;-31
2022/12/24 20:07:21;;;;;;;54.77;28.30;;;;;;;17.49;63.01;96796.28;10443284;28;20520;-30
2022/12/24 20:12:22;;;;;;;57.73;28.33;;;;;;;17.55;64.05;96802.22;10441836;28;20036;-30
2022/12/24 20:17:22;;;;;;;56.30;25.47;;;;;;;17.55;64.19;96802.22;10437328;28;20416;-30
2022/12/24 20:22:22;;;;;;;47.65;24.35;;;;;;;17.55;64.24;96806.41;10440785;28;20025;-30
2022/12/24 20:27:24;;;;;;;49.43;23.13;;;;;;;17.55;63.75;96811.47;10433097;28;20036;-31
2022/12/24 20:32:24;;;;;;;45.78;23.60;;;;;;;17.55;63.89;96806.41;10433214;28;20137;-30
2022/12/24 20:37:25;;;;;;;42.58;22.55;;;;;;;17.54;64.08;96810.66;10422649;28;20183;-30
2022/12/24 20:42:25;;;;;;;44.10;21.47;;;;;;;17.56;64.35;96814.03;10431420;28;20037;-30
2022/12/24 20:47:26;;;;;;;40.37;19.80;;;;;;;17.57;64.25;96815.72;10422324;28;20114;-31
2022/12/24 20:52:26;;;;;;;43.88;19.17;;;;;;;17.58;63.51;96816.56;10427248;28;20048;-30
2022/12/24 20:57:27;;;;;;;32.97;18.27;;;;;;;17.59;63.36;96808.13;10427477;28;20025;-32
2022/12/24 21:02:27;;;;;;;33.60;17.67;;;;;;;17.55;63.36;96811.47;10438615;28;20279;-31
2022/12/24 21:07:27;;;;;;;29.90;16.70;;;;;;;17.59;62.19;96816.56;10431340;28;20037;-31
2022/12/24 21:17:47;;;;;;;33.92;16.52;;;;;;;17.57;59.53;96810.66;10430718;28;20516;-31
2022/12/24 21:22:48;;;;;;;25.75;13.65;;;;;;;17.56;61.56;96808.13;10439541;28;20068;-30
2022/12/24 21:27:50;;;;;;;28.08;14.20;;;;;;;17.56;61.32;96805.59;10435453;28;20041;-30
2022/12/24 21:32:51;;;;;;;24.00;14.15;;;;;;;17.57;61.23;96802.22;10439849;28;20068;-30
2022/12/24 21:37:51;;;;;;;26.73;13.18;;;;;;;17.56;62.20;96806.44;10440969;28;20116;-31
2022/12/24 21:42:51;;;;;;;25.70;13.50;;;;;;;17.49;63.02;96776.03;10439428;28;20060;-31
2022/12/24 21:47:52;;;;;;;19.80;12.33;;;;;;;17.57;62.63;96795.47;10438032;28;20037;-31
2022/12/24 21:54:21;;;;;;;22.87;12.07;;;;;;;17.56;62.10;96790.41;10445249;28;20063;-32
2022/12/24 21:58:12;;;;;;;25.02;12.90;;;;;;;17.55;62.57;96786.16;10439621;28;20086;-31
2022/12/24 22:03:13;;;;;;;20.53;11.83;;;;;;;17.54;62.07;96790.41;10439314;28;20530;-32
2022/12/24 22:13:32;;;;;;;21.33;12.68;;;;;;;17.49;62.24;96776.03;10431817;28;20039;-30
2022/12/24 22:18:32;;;;;;;18.20;11.50;;;;;;;17.53;62.40;96788.72;10436477;28;20039;-31
2022/12/24 22:23:33;;;;;;;19.53;10.70;;;;;;;17.55;62.16;96796.28;10429817;28;20299;-31
2022/12/24 22:28:33;;;;;;;20.33;10.53;;;;;;;17.54;62.41;96787.00;10432073;28;20037;-31
2022/12/24 22:33:35;;;;;;;20.70;11.80;;;;;;;17.52;61.96;96792.09;10439755;28;20037;-30
2022/12/24 22:38:35;;;;;;;21.55;10.90;;;;;;;17.52;62.58;96791.22;10432926;28;20523;-31
2022/12/24 22:43:35;;;;;;;18.58;10.77;;;;;;;17.54;63.27;96787.88;10438512;28;20035;-30
2022/12/24 22:48:37;;;;;;;20.00;10.53;;;;;;;17.55;63.23;96781.09;10442818;28;20083;-30
2022/12/24 22:53:38;;;;;;;18.40;10.38;;;;;;;17.54;62.60;96779.41;10438406;28;20033;-31
2022/12/24 22:58:38;;;;;;;19.52;10.10;;;;;;;17.54;62.37;96779.41;10438410;28;20037;-30
2022/12/24 23:03:39;;;;;;;19.67;10.17;;;;;;;17.49;63.01;96776.88;10443937;28;20043;-31
2022/12/24 23:08:39;;;;;;;20.10;11.60;;;;;;;17.47;63.01;96772.63;10436310;28;20033;-30
2022/12/24 23:19:02;;;;;;;17.33;9.90;;;;;;;17.47;63.13;96767.56;10439494;28;20516;-31
2022/12/24 23:24:03;;;;;;;17.67;10.73;;;;;;;17.43;63.07;96755.75;10442407;28;20029;-30
2022/12/24 23:29:04;;;;;;;16.00;9.23;;;;;;;17.50;62.40;96743.13;10438441;28;20040;-31
2022/12/24 23:34:04;;;;;;;18.00;9.60;;;;;;;17.54;61.75;96737.25;10435687;28;20033;-30
2022/12/24 23:39:04;;;;;;;22.10;9.87;;;;;;;17.57;62.52;96739.78;10443974;28;20481;-31
2022/12/24 23:44:05;;;;;;;18.30;10.07;;;;;;;17.58;62.93;96725.44;10440813;28;20496;-30